sensor_id;sensor_type;location;lat;lon;timestamp;temperature;humidity
4727;DHT22;2377;51.734;8.950;2023-06-14T00:00:10;17.30;1.00
4727;DHT22;2377;51.734;8.950;2023-06-14T00:02:39;17.20;1.00
4727;DHT22;2377;51.734;8.950;2023-06-14T00:05:07;17.20;1.00
4727;DHT22;2377;51.734;8.950;2023-06-14T00:07:35;17.10;1.00
4727;DHT22;2377;51.734;8.950;2023-06-14T00:10:04;17.10;1.00
4727;DHT22;2377;51.734;8.950;2023-06-14T00:12:32;17.10;1.00
4727;DHT22;2377;51.734;8.950;2023-06-14T00:14:59;17.10;1.00
4727;DHT22;2377;51.734;8.950;2023-06-14T00:17:29;17.10;1.00
4727;DHT22;2377;51.734;8.950;2023-06-14T00:19:57;17.10;1.00
4727;DHT22;2377;51.734;8.950;2023-06-14T00:22:24;17.10;1.00
4727;DHT22;2377;51.734;8.950;2023-06-14T00:24:51;17.10;1.00
4727;DHT22;2377;51.734;8.950;2023-06-14T00:27:18;17.10;1.00
4727;DHT22;2377;51.734;8.950;2023-06-14T00:29:45;17.10;1.00
4727;DHT22;2377;51.734;8.950;2023-06-14T00:32:13;17.10;1.00
4727;DHT22;2377;51.734;8.950;2023-06-14T00:34:41;17.10;1.00
4727;DHT22;2377;51.734;8.950;2023-06-14T00:37:08;17.00;1.00
4727;DHT22;2377;51.734;8.950;2023-06-14T00:39:35;17.00;1.00
4727;DHT22;2377;51.734;8.950;2023-06-14T00:42:03;16.90;1.00
4727;DHT22;2377;51.734;8.950;2023-06-14T00:44:30;16.80;1.00
4727;DHT22;2377;51.734;8.950;2023-06-14T00:46:58;16.70;1.00
4727;DHT22;2377;51.734;8.950;2023-06-14T00:49:25;16.70;1.00
4727;DHT22;2377;51.734;8.950;2023-06-14T00:51:53;16.60;1.00
4727;DHT22;2377;51.734;8.950;2023-06-14T00:54:21;16.50;1.00
4727;DHT22;2377;51.734;8.950;2023-06-14T00:56:48;16.50;1.00
4727;DHT22;2377;51.734;8.950;2023-06-14T00:59:15;16.50;1.00
4727;DHT22;2377;51.734;8.950;2023-06-14T01:01:42;16.60;1.00
4727;DHT22;2377;51.734;8.950;2023-06-14T01:04:10;16.60;1.00
4727;DHT22;2377;51.734;8.950;2023-06-14T01:06:49;16.60;1.00
4727;DHT22;2377;51.734;8.950;2023-06-14T01:09:33;16.60;1.00
4727;DHT22;2377;51.734;8.950;2023-06-14T01:12:09;16.60;1.00
4727;DHT22;2377;51.734;8.950;2023-06-14T01:14:42;16.50;1.00
4727;DHT22;2377;51.734;8.950;2023-06-14T01:17:11;16.50;1.00
4727;DHT22;2377;51.734;8.950;2023-06-14T01:19:42;16.50;1.00
4727;DHT22;2377;51.734;8.950;2023-06-14T01:22:11;16.40;1.00
4727;DHT22;2377;51.734;8.950;2023-06-14T01:24:40;16.30;1.00
4727;DHT22;2377;51.734;8.950;2023-06-14T01:27:11;16.20;1.00
4727;DHT22;2377;51.734;8.950;2023-06-14T01:29:39;16.00;1.00
4727;DHT22;2377;51.734;8.950;2023-06-14T01:32:11;15.80;1.00
4727;DHT22;2377;51.734;8.950;2023-06-14T01:34:39;15.80;1.00
4727;DHT22;2377;51.734;8.950;2023-06-14T01:37:06;15.60;1.00
4727;DHT22;2377;51.734;8.950;2023-06-14T01:39:35;15.40;1.00
4727;DHT22;2377;51.734;8.950;2023-06-14T01:42:05;15.20;1.00
4727;DHT22;2377;51.734;8.950;2023-06-14T01:44:33;15.20;1.00
4727;DHT22;2377;51.734;8.950;2023-06-14T01:47:00;15.20;1.00
4727;DHT22;2377;51.734;8.950;2023-06-14T01:49:27;15.20;1.00
4727;DHT22;2377;51.734;8.950;2023-06-14T01:51:54;15.30;1.00
4727;DHT22;2377;51.734;8.950;2023-06-14T01:54:21;15.30;1.00
4727;DHT22;2377;51.734;8.950;2023-06-14T01:56:51;15.30;1.00
4727;DHT22;2377;51.734;8.950;2023-06-14T01:59:19;15.30;1.00
4727;DHT22;2377;51.734;8.950;2023-06-14T02:01:46;15.20;1.00
4727;DHT22;2377;51.734;8.950;2023-06-14T02:04:13;15.20;1.00
4727;DHT22;2377;51.734;8.950;2023-06-14T02:06:41;15.10;1.00
4727;DHT22;2377;51.734;8.950;2023-06-14T02:09:08;15.10;1.00
4727;DHT22;2377;51.734;8.950;2023-06-14T02:11:35;15.10;1.00
4727;DHT22;2377;51.734;8.950;2023-06-14T02:14:02;15.10;1.00
4727;DHT22;2377;51.734;8.950;2023-06-14T02:16:30;15.10;1.00
4727;DHT22;2377;51.734;8.950;2023-06-14T02:19:01;15.10;1.00
4727;DHT22;2377;51.734;8.950;2023-06-14T02:21:28;15.10;1.00
4727;DHT22;2377;51.734;8.950;2023-06-14T02:23:55;15.10;1.00
4727;DHT22;2377;51.734;8.950;2023-06-14T02:26:23;15.00;1.00
4727;DHT22;2377;51.734;8.950;2023-06-14T02:28:51;15.00;1.00
4727;DHT22;2377;51.734;8.950;2023-06-14T02:31:18;14.90;1.00
4727;DHT22;2377;51.734;8.950;2023-06-14T02:33:46;14.90;1.00
4727;DHT22;2377;51.734;8.950;2023-06-14T02:36:13;14.80;1.00
4727;DHT22;2377;51.734;8.950;2023-06-14T02:38:40;14.60;1.00
4727;DHT22;2377;51.734;8.950;2023-06-14T02:41:07;14.60;1.00
4727;DHT22;2377;51.734;8.950;2023-06-14T02:43:35;14.50;1.00
4727;DHT22;2377;51.734;8.950;2023-06-14T02:46:02;14.40;1.00
4727;DHT22;2377;51.734;8.950;2023-06-14T02:48:29;14.30;1.00
4727;DHT22;2377;51.734;8.950;2023-06-14T02:50:58;14.30;1.00
4727;DHT22;2377;51.734;8.950;2023-06-14T02:53:25;14.20;1.00
4727;DHT22;2377;51.734;8.950;2023-06-14T02:55:52;14.20;1.00
4727;DHT22;2377;51.734;8.950;2023-06-14T02:58:21;14.20;1.00
4727;DHT22;2377;51.734;8.950;2023-06-14T03:00:50;14.10;1.00
4727;DHT22;2377;51.734;8.950;2023-06-14T03:03:18;14.10;1.00
4727;DHT22;2377;51.734;8.950;2023-06-14T03:05:48;14.10;1.00
4727;DHT22;2377;51.734;8.950;2023-06-14T03:08:18;14.10;1.00
4727;DHT22;2377;51.734;8.950;2023-06-14T03:10:46;14.00;1.00
4727;DHT22;2377;51.734;8.950;2023-06-14T03:13:15;14.10;1.00
4727;DHT22;2377;51.734;8.950;2023-06-14T03:15:42;14.10;1.00
4727;DHT22;2377;51.734;8.950;2023-06-14T03:18:10;14.00;1.00
4727;DHT22;2377;51.734;8.950;2023-06-14T03:20:38;14.00;1.00
4727;DHT22;2377;51.734;8.950;2023-06-14T03:23:06;14.00;1.00
4727;DHT22;2377;51.734;8.950;2023-06-14T03:25:35;14.00;1.00
4727;DHT22;2377;51.734;8.950;2023-06-14T03:28:04;14.00;1.00
4727;DHT22;2377;51.734;8.950;2023-06-14T03:30:31;14.00;1.00
4727;DHT22;2377;51.734;8.950;2023-06-14T03:32:58;14.00;1.00
4727;DHT22;2377;51.734;8.950;2023-06-14T03:35:27;14.00;1.00
4727;DHT22;2377;51.734;8.950;2023-06-14T03:37:55;13.90;1.00
4727;DHT22;2377;51.734;8.950;2023-06-14T03:40:22;13.80;1.00
4727;DHT22;2377;51.734;8.950;2023-06-14T03:42:54;13.80;1.00
4727;DHT22;2377;51.734;8.950;2023-06-14T03:45:21;13.60;1.00
4727;DHT22;2377;51.734;8.950;2023-06-14T03:47:48;13.60;1.00
4727;DHT22;2377;51.734;8.950;2023-06-14T03:50:17;13.50;1.00
4727;DHT22;2377;51.734;8.950;2023-06-14T03:52:44;13.40;1.00
4727;DHT22;2377;51.734;8.950;2023-06-14T03:55:12;13.30;1.00
4727;DHT22;2377;51.734;8.950;2023-06-14T03:57:39;13.20;1.00
4727;DHT22;2377;51.734;8.950;2023-06-14T04:00:09;13.20;1.00
4727;DHT22;2377;51.734;8.950;2023-06-14T04:02:38;13.30;1.00
4727;DHT22;2377;51.734;8.950;2023-06-14T04:05:05;13.30;1.00
4727;DHT22;2377;51.734;8.950;2023-06-14T04:07:34;13.30;1.00
4727;DHT22;2377;51.734;8.950;2023-06-14T04:10:06;13.30;1.00
4727;DHT22;2377;51.734;8.950;2023-06-14T04:12:34;13.30;1.00
4727;DHT22;2377;51.734;8.950;2023-06-14T04:15:01;13.40;1.00
4727;DHT22;2377;51.734;8.950;2023-06-14T04:17:30;13.50;1.00
4727;DHT22;2377;51.734;8.950;2023-06-14T04:19:58;13.60;1.00
4727;DHT22;2377;51.734;8.950;2023-06-14T04:22:25;13.70;1.00
4727;DHT22;2377;51.734;8.950;2023-06-14T04:24:54;13.70;1.00
4727;DHT22;2377;51.734;8.950;2023-06-14T04:27:22;13.80;1.00
4727;DHT22;2377;51.734;8.950;2023-06-14T04:29:51;13.90;1.00
4727;DHT22;2377;51.734;8.950;2023-06-14T04:32:23;14.00;1.00
4727;DHT22;2377;51.734;8.950;2023-06-14T04:34:53;14.00;1.00
4727;DHT22;2377;51.734;8.950;2023-06-14T04:37:21;14.10;1.00
4727;DHT22;2377;51.734;8.950;2023-06-14T04:39:48;14.20;1.00
4727;DHT22;2377;51.734;8.950;2023-06-14T04:42:17;14.30;1.00
4727;DHT22;2377;51.734;8.950;2023-06-14T04:44:46;14.30;1.00
4727;DHT22;2377;51.734;8.950;2023-06-14T04:47:14;14.30;1.00
4727;DHT22;2377;51.734;8.950;2023-06-14T04:49:42;14.40;1.00
4727;DHT22;2377;51.734;8.950;2023-06-14T04:52:11;14.40;1.00
4727;DHT22;2377;51.734;8.950;2023-06-14T04:54:38;14.50;1.00
4727;DHT22;2377;51.734;8.950;2023-06-14T04:57:08;14.50;1.00
4727;DHT22;2377;51.734;8.950;2023-06-14T04:59:39;14.60;1.00
4727;DHT22;2377;51.734;8.950;2023-06-14T05:02:06;14.60;1.00
4727;DHT22;2377;51.734;8.950;2023-06-14T05:04:34;14.80;1.00
4727;DHT22;2377;51.734;8.950;2023-06-14T05:07:06;14.80;1.00
4727;DHT22;2377;51.734;8.950;2023-06-14T05:09:35;14.90;1.00
4727;DHT22;2377;51.734;8.950;2023-06-14T05:12:02;15.00;1.00
4727;DHT22;2377;51.734;8.950;2023-06-14T05:14:30;15.10;1.00
4727;DHT22;2377;51.734;8.950;2023-06-14T05:16:57;15.10;1.00
4727;DHT22;2377;51.734;8.950;2023-06-14T05:19:25;15.10;1.00
4727;DHT22;2377;51.734;8.950;2023-06-14T05:21:53;15.20;1.00
4727;DHT22;2377;51.734;8.950;2023-06-14T05:24:20;15.30;1.00
4727;DHT22;2377;51.734;8.950;2023-06-14T05:26:49;15.30;1.00
4727;DHT22;2377;51.734;8.950;2023-06-14T05:29:16;15.40;1.00
4727;DHT22;2377;51.734;8.950;2023-06-14T05:31:43;15.40;1.00
4727;DHT22;2377;51.734;8.950;2023-06-14T05:34:10;15.50;1.00
4727;DHT22;2377;51.734;8.950;2023-06-14T05:36:37;15.50;1.00
4727;DHT22;2377;51.734;8.950;2023-06-14T05:39:04;15.60;1.00
4727;DHT22;2377;51.734;8.950;2023-06-14T05:41:32;15.60;1.00
4727;DHT22;2377;51.734;8.950;2023-06-14T05:44:01;15.60;1.00
4727;DHT22;2377;51.734;8.950;2023-06-14T05:46:29;15.60;1.00
4727;DHT22;2377;51.734;8.950;2023-06-14T05:48:59;15.60;1.00
4727;DHT22;2377;51.734;8.950;2023-06-14T05:51:26;15.60;1.00
4727;DHT22;2377;51.734;8.950;2023-06-14T05:53:53;15.70;1.00
4727;DHT22;2377;51.734;8.950;2023-06-14T05:56:20;15.70;1.00
4727;DHT22;2377;51.734;8.950;2023-06-14T05:58:47;15.80;1.00
4727;DHT22;2377;51.734;8.950;2023-06-14T06:01:16;15.80;1.00
4727;DHT22;2377;51.734;8.950;2023-06-14T06:03:43;15.80;1.00
4727;DHT22;2377;51.734;8.950;2023-06-14T06:06:11;15.80;1.00
4727;DHT22;2377;51.734;8.950;2023-06-14T06:08:39;15.90;1.00
4727;DHT22;2377;51.734;8.950;2023-06-14T06:11:06;15.90;1.00
4727;DHT22;2377;51.734;8.950;2023-06-14T06:13:33;16.00;1.00
4727;DHT22;2377;51.734;8.950;2023-06-14T06:16:01;16.00;1.00
4727;DHT22;2377;51.734;8.950;2023-06-14T06:18:29;16.00;1.00
4727;DHT22;2377;51.734;8.950;2023-06-14T06:20:56;16.00;1.00
4727;DHT22;2377;51.734;8.950;2023-06-14T06:23:23;16.00;1.00
4727;DHT22;2377;51.734;8.950;2023-06-14T06:25:51;16.10;1.00
4727;DHT22;2377;51.734;8.950;2023-06-14T06:28:18;16.10;1.00
4727;DHT22;2377;51.734;8.950;2023-06-14T06:30:46;16.20;1.00
4727;DHT22;2377;51.734;8.950;2023-06-14T06:33:13;16.30;1.00
4727;DHT22;2377;51.734;8.950;2023-06-14T06:35:42;16.30;1.00
4727;DHT22;2377;51.734;8.950;2023-06-14T06:38:09;16.30;1.00
4727;DHT22;2377;51.734;8.950;2023-06-14T06:40:39;16.50;1.00
4727;DHT22;2377;51.734;8.950;2023-06-14T06:43:06;16.60;1.00
4727;DHT22;2377;51.734;8.950;2023-06-14T06:45:33;16.80;1.00
4727;DHT22;2377;51.734;8.950;2023-06-14T06:48:00;17.00;1.00
4727;DHT22;2377;51.734;8.950;2023-06-14T06:50:28;17.20;1.00
4727;DHT22;2377;51.734;8.950;2023-06-14T06:52:57;17.50;1.00
4727;DHT22;2377;51.734;8.950;2023-06-14T06:55:24;17.60;1.00
4727;DHT22;2377;51.734;8.950;2023-06-14T06:57:51;17.70;1.00
4727;DHT22;2377;51.734;8.950;2023-06-14T07:00:19;17.80;1.00
4727;DHT22;2377;51.734;8.950;2023-06-14T07:02:47;18.00;1.00
4727;DHT22;2377;51.734;8.950;2023-06-14T07:05:14;18.30;1.00
4727;DHT22;2377;51.734;8.950;2023-06-14T07:07:41;18.50;1.00
4727;DHT22;2377;51.734;8.950;2023-06-14T07:10:10;18.60;1.00
4727;DHT22;2377;51.734;8.950;2023-06-14T07:12:37;18.90;1.00
4727;DHT22;2377;51.734;8.950;2023-06-14T07:15:06;19.10;1.00
4727;DHT22;2377;51.734;8.950;2023-06-14T07:17:34;19.40;1.00
4727;DHT22;2377;51.734;8.950;2023-06-14T07:20:02;19.60;1.00
4727;DHT22;2377;51.734;8.950;2023-06-14T07:22:33;19.80;1.00
4727;DHT22;2377;51.734;8.950;2023-06-14T07:25:01;19.70;1.00
4727;DHT22;2377;51.734;8.950;2023-06-14T07:27:29;19.80;1.00
4727;DHT22;2377;51.734;8.950;2023-06-14T07:29:56;19.80;1.00
4727;DHT22;2377;51.734;8.950;2023-06-14T07:32:23;19.90;1.00
4727;DHT22;2377;51.734;8.950;2023-06-14T07:34:51;20.10;1.00
4727;DHT22;2377;51.734;8.950;2023-06-14T07:37:18;20.30;1.00
4727;DHT22;2377;51.734;8.950;2023-06-14T07:39:45;20.50;1.00
4727;DHT22;2377;51.734;8.950;2023-06-14T07:42:12;20.60;1.00
4727;DHT22;2377;51.734;8.950;2023-06-14T07:44:40;20.80;1.00
4727;DHT22;2377;51.734;8.950;2023-06-14T07:47:07;21.00;1.00
4727;DHT22;2377;51.734;8.950;2023-06-14T07:49:35;21.00;1.00
4727;DHT22;2377;51.734;8.950;2023-06-14T07:52:02;21.10;1.00
4727;DHT22;2377;51.734;8.950;2023-06-14T07:54:30;21.30;1.00
4727;DHT22;2377;51.734;8.950;2023-06-14T07:56:58;21.40;1.00
4727;DHT22;2377;51.734;8.950;2023-06-14T07:59:26;21.60;1.00
4727;DHT22;2377;51.734;8.950;2023-06-14T08:01:54;21.80;1.00
4727;DHT22;2377;51.734;8.950;2023-06-14T08:04:21;21.50;1.00
4727;DHT22;2377;51.734;8.950;2023-06-14T08:06:49;21.00;1.00
4727;DHT22;2377;51.734;8.950;2023-06-14T08:09:16;21.00;1.00
4727;DHT22;2377;51.734;8.950;2023-06-14T08:11:43;21.10;1.00
4727;DHT22;2377;51.734;8.950;2023-06-14T08:14:10;21.30;1.00
4727;DHT22;2377;51.734;8.950;2023-06-14T08:16:38;21.20;1.00
4727;DHT22;2377;51.734;8.950;2023-06-14T08:19:06;21.00;1.00
4727;DHT22;2377;51.734;8.950;2023-06-14T08:21:33;21.00;1.00
4727;DHT22;2377;51.734;8.950;2023-06-14T08:24:02;20.80;1.00
4727;DHT22;2377;51.734;8.950;2023-06-14T08:26:30;21.00;1.00
4727;DHT22;2377;51.734;8.950;2023-06-14T08:28:57;21.30;1.00
4727;DHT22;2377;51.734;8.950;2023-06-14T08:31:25;21.60;1.00
4727;DHT22;2377;51.734;8.950;2023-06-14T08:33:53;21.90;1.00
4727;DHT22;2377;51.734;8.950;2023-06-14T08:36:21;22.10;1.00
4727;DHT22;2377;51.734;8.950;2023-06-14T08:38:48;22.50;1.00
4727;DHT22;2377;51.734;8.950;2023-06-14T08:41:21;22.50;1.00
4727;DHT22;2377;51.734;8.950;2023-06-14T08:43:50;22.40;1.00
4727;DHT22;2377;51.734;8.950;2023-06-14T08:46:17;22.50;1.00
4727;DHT22;2377;51.734;8.950;2023-06-14T08:48:49;22.50;1.00
4727;DHT22;2377;51.734;8.950;2023-06-14T08:51:19;22.60;1.00
4727;DHT22;2377;51.734;8.950;2023-06-14T08:53:52;22.80;1.00
4727;DHT22;2377;51.734;8.950;2023-06-14T08:56:24;23.10;1.00
4727;DHT22;2377;51.734;8.950;2023-06-14T08:58:53;23.20;1.00
4727;DHT22;2377;51.734;8.950;2023-06-14T09:01:22;23.30;1.00
4727;DHT22;2377;51.734;8.950;2023-06-14T09:03:50;23.50;1.00
4727;DHT22;2377;51.734;8.950;2023-06-14T09:06:17;23.40;1.00
4727;DHT22;2377;51.734;8.950;2023-06-14T09:08:47;23.10;1.00
4727;DHT22;2377;51.734;8.950;2023-06-14T09:11:15;23.10;1.00
4727;DHT22;2377;51.734;8.950;2023-06-14T09:13:45;23.30;1.00
4727;DHT22;2377;51.734;8.950;2023-06-14T09:16:13;23.40;1.00
4727;DHT22;2377;51.734;8.950;2023-06-14T09:18:43;23.60;1.00
4727;DHT22;2377;51.734;8.950;2023-06-14T09:21:13;23.60;1.00
4727;DHT22;2377;51.734;8.950;2023-06-14T09:23:42;23.70;1.00
4727;DHT22;2377;51.734;8.950;2023-06-14T09:26:13;23.80;1.00
4727;DHT22;2377;51.734;8.950;2023-06-14T09:28:41;23.90;1.00
4727;DHT22;2377;51.734;8.950;2023-06-14T09:31:10;24.00;1.00
4727;DHT22;2377;51.734;8.950;2023-06-14T09:33:38;23.70;1.00
4727;DHT22;2377;51.734;8.950;2023-06-14T09:36:10;23.90;1.00
4727;DHT22;2377;51.734;8.950;2023-06-14T09:38:40;24.00;1.00
4727;DHT22;2377;51.734;8.950;2023-06-14T09:41:07;24.10;1.00
4727;DHT22;2377;51.734;8.950;2023-06-14T09:43:36;24.20;1.00
4727;DHT22;2377;51.734;8.950;2023-06-14T09:46:05;24.30;1.00
4727;DHT22;2377;51.734;8.950;2023-06-14T09:48:33;24.50;1.00
4727;DHT22;2377;51.734;8.950;2023-06-14T09:51:01;24.60;99.90
4727;DHT22;2377;51.734;8.950;2023-06-14T09:53:30;24.60;99.90
4727;DHT22;2377;51.734;8.950;2023-06-14T09:55:59;24.50;99.90
4727;DHT22;2377;51.734;8.950;2023-06-14T09:58:28;24.60;99.90
4727;DHT22;2377;51.734;8.950;2023-06-14T10:00:59;24.50;99.90
4727;DHT22;2377;51.734;8.950;2023-06-14T10:03:28;24.50;99.90
4727;DHT22;2377;51.734;8.950;2023-06-14T10:05:58;24.50;1.00
4727;DHT22;2377;51.734;8.950;2023-06-14T10:08:31;24.30;1.00
4727;DHT22;2377;51.734;8.950;2023-06-14T10:11:02;24.30;1.00
4727;DHT22;2377;51.734;8.950;2023-06-14T10:13:32;24.10;1.00
4727;DHT22;2377;51.734;8.950;2023-06-14T10:16:07;24.20;1.00
4727;DHT22;2377;51.734;8.950;2023-06-14T10:18:44;23.90;1.00
4727;DHT22;2377;51.734;8.950;2023-06-14T10:21:21;23.80;1.00
4727;DHT22;2377;51.734;8.950;2023-06-14T10:23:56;24.00;1.00
4727;DHT22;2377;51.734;8.950;2023-06-14T10:26:30;24.30;1.00
4727;DHT22;2377;51.734;8.950;2023-06-14T10:28:58;24.50;1.00
4727;DHT22;2377;51.734;8.950;2023-06-14T10:31:45;24.60;1.00
4727;DHT22;2377;51.734;8.950;2023-06-14T10:34:22;24.60;1.00
4727;DHT22;2377;51.734;8.950;2023-06-14T10:37:04;24.40;1.00
4727;DHT22;2377;51.734;8.950;2023-06-14T10:39:39;24.50;99.90
4727;DHT22;2377;51.734;8.950;2023-06-14T10:42:10;24.50;1.00
4727;DHT22;2377;51.734;8.950;2023-06-14T10:44:42;24.10;1.00
4727;DHT22;2377;51.734;8.950;2023-06-14T10:47:21;24.10;1.00
4727;DHT22;2377;51.734;8.950;2023-06-14T10:49:52;24.00;1.00
4727;DHT22;2377;51.734;8.950;2023-06-14T10:52:26;23.60;1.00
4727;DHT22;2377;51.734;8.950;2023-06-14T10:55:08;23.40;1.00
4727;DHT22;2377;51.734;8.950;2023-06-14T10:57:38;23.40;1.00
4727;DHT22;2377;51.734;8.950;2023-06-14T11:00:07;23.40;1.00
4727;DHT22;2377;51.734;8.950;2023-06-14T11:06:13;23.30;1.00
4727;DHT22;2377;51.734;8.950;2023-06-14T11:09:09;23.60;1.00
4727;DHT22;2377;51.734;8.950;2023-06-14T11:11:48;23.90;1.00
4727;DHT22;2377;51.734;8.950;2023-06-14T11:14:18;24.10;1.00
4727;DHT22;2377;51.734;8.950;2023-06-14T11:16:48;24.30;1.00
4727;DHT22;2377;51.734;8.950;2023-06-14T11:19:17;24.30;1.00
4727;DHT22;2377;51.734;8.950;2023-06-14T11:21:47;24.20;1.00
4727;DHT22;2377;51.734;8.950;2023-06-14T11:24:16;24.10;1.00
4727;DHT22;2377;51.734;8.950;2023-06-14T11:26:43;24.10;1.00
4727;DHT22;2377;51.734;8.950;2023-06-14T11:29:10;24.10;1.00
4727;DHT22;2377;51.734;8.950;2023-06-14T11:31:38;24.00;1.00
4727;DHT22;2377;51.734;8.950;2023-06-14T11:34:11;24.00;1.00
4727;DHT22;2377;51.734;8.950;2023-06-14T11:36:40;24.10;1.00
4727;DHT22;2377;51.734;8.950;2023-06-14T11:39:08;24.30;1.00
4727;DHT22;2377;51.734;8.950;2023-06-14T11:41:37;24.50;1.00
4727;DHT22;2377;51.734;8.950;2023-06-14T11:44:06;24.40;1.00
4727;DHT22;2377;51.734;8.950;2023-06-14T11:46:34;24.40;99.90
4727;DHT22;2377;51.734;8.950;2023-06-14T11:49:02;24.60;99.90
4727;DHT22;2377;51.734;8.950;2023-06-14T11:51:30;24.80;1.00
4727;DHT22;2377;51.734;8.950;2023-06-14T11:53:59;24.80;1.00
4727;DHT22;2377;51.734;8.950;2023-06-14T11:56:28;24.80;1.00
4727;DHT22;2377;51.734;8.950;2023-06-14T11:58:56;24.50;1.00
4727;DHT22;2377;51.734;8.950;2023-06-14T12:01:24;24.30;1.00
4727;DHT22;2377;51.734;8.950;2023-06-14T12:03:53;24.30;1.00
4727;DHT22;2377;51.734;8.950;2023-06-14T12:06:29;24.30;1.00
4727;DHT22;2377;51.734;8.950;2023-06-14T12:09:04;24.30;1.00
4727;DHT22;2377;51.734;8.950;2023-06-14T12:11:37;24.50;1.00
4727;DHT22;2377;51.734;8.950;2023-06-14T12:14:05;24.50;1.00
4727;DHT22;2377;51.734;8.950;2023-06-14T12:16:36;24.50;1.00
4727;DHT22;2377;51.734;8.950;2023-06-14T12:19:11;24.30;1.00
4727;DHT22;2377;51.734;8.950;2023-06-14T12:21:40;24.30;1.00
4727;DHT22;2377;51.734;8.950;2023-06-14T12:24:09;24.30;1.00
4727;DHT22;2377;51.734;8.950;2023-06-14T12:26:39;24.10;1.00
4727;DHT22;2377;51.734;8.950;2023-06-14T12:29:07;24.00;1.00
4727;DHT22;2377;51.734;8.950;2023-06-14T12:31:34;24.10;1.00
4727;DHT22;2377;51.734;8.950;2023-06-14T12:34:02;24.30;1.00
4727;DHT22;2377;51.734;8.950;2023-06-14T12:36:30;24.50;1.00
4727;DHT22;2377;51.734;8.950;2023-06-14T12:38:57;24.70;1.00
4727;DHT22;2377;51.734;8.950;2023-06-14T12:41:26;24.80;1.00
4727;DHT22;2377;51.734;8.950;2023-06-14T12:43:53;24.90;99.90
4727;DHT22;2377;51.734;8.950;2023-06-14T12:46:20;25.00;99.90
4727;DHT22;2377;51.734;8.950;2023-06-14T12:48:48;25.10;1.00
4727;DHT22;2377;51.734;8.950;2023-06-14T12:51:15;25.10;1.00
4727;DHT22;2377;51.734;8.950;2023-06-14T12:53:43;25.00;1.00
4727;DHT22;2377;51.734;8.950;2023-06-14T12:56:10;24.80;1.00
4727;DHT22;2377;51.734;8.950;2023-06-14T12:58:39;24.60;1.00
4727;DHT22;2377;51.734;8.950;2023-06-14T13:01:06;24.50;99.90
4727;DHT22;2377;51.734;8.950;2023-06-14T13:03:34;24.60;99.90
4727;DHT22;2377;51.734;8.950;2023-06-14T13:06:03;24.80;1.00
4727;DHT22;2377;51.734;8.950;2023-06-14T13:08:30;24.90;99.90
4727;DHT22;2377;51.734;8.950;2023-06-14T13:10:58;24.80;99.90
4727;DHT22;2377;51.734;8.950;2023-06-14T13:13:25;24.80;99.90
4727;DHT22;2377;51.734;8.950;2023-06-14T13:15:54;24.80;99.90
4727;DHT22;2377;51.734;8.950;2023-06-14T13:18:21;24.80;99.90
4727;DHT22;2377;51.734;8.950;2023-06-14T13:20:49;24.70;99.90
4727;DHT22;2377;51.734;8.950;2023-06-14T13:23:17;24.60;99.90
4727;DHT22;2377;51.734;8.950;2023-06-14T13:25:44;24.50;1.00
4727;DHT22;2377;51.734;8.950;2023-06-14T13:28:12;24.60;1.00
4727;DHT22;2377;51.734;8.950;2023-06-14T13:30:39;24.60;99.90
4727;DHT22;2377;51.734;8.950;2023-06-14T13:33:08;24.60;99.90
4727;DHT22;2377;51.734;8.950;2023-06-14T13:35:35;24.50;1.00
4727;DHT22;2377;51.734;8.950;2023-06-14T13:38:02;24.40;1.00
4727;DHT22;2377;51.734;8.950;2023-06-14T13:40:29;24.30;1.00
4727;DHT22;2377;51.734;8.950;2023-06-14T13:42:57;24.10;1.00
4727;DHT22;2377;51.734;8.950;2023-06-14T13:45:24;24.20;1.00
4727;DHT22;2377;51.734;8.950;2023-06-14T13:47:54;24.30;1.00
4727;DHT22;2377;51.734;8.950;2023-06-14T13:50:22;24.40;99.90
4727;DHT22;2377;51.734;8.950;2023-06-14T13:52:50;24.30;1.00
4727;DHT22;2377;51.734;8.950;2023-06-14T13:55:17;24.20;1.00
4727;DHT22;2377;51.734;8.950;2023-06-14T13:57:44;24.30;1.00
4727;DHT22;2377;51.734;8.950;2023-06-14T14:00:12;24.30;1.00
4727;DHT22;2377;51.734;8.950;2023-06-14T14:02:40;24.50;1.00
4727;DHT22;2377;51.734;8.950;2023-06-14T14:05:08;24.50;1.00
4727;DHT22;2377;51.734;8.950;2023-06-14T14:07:37;24.60;1.00
4727;DHT22;2377;51.734;8.950;2023-06-14T14:10:06;24.80;99.90
4727;DHT22;2377;51.734;8.950;2023-06-14T14:12:34;25.00;99.90
4727;DHT22;2377;51.734;8.950;2023-06-14T14:15:05;24.90;1.00
4727;DHT22;2377;51.734;8.950;2023-06-14T14:17:38;24.70;1.00
4727;DHT22;2377;51.734;8.950;2023-06-14T14:20:07;24.50;1.00
4727;DHT22;2377;51.734;8.950;2023-06-14T14:22:36;24.30;1.00
4727;DHT22;2377;51.734;8.950;2023-06-14T14:25:04;24.50;1.00
4727;DHT22;2377;51.734;8.950;2023-06-14T14:27:32;24.60;1.00
4727;DHT22;2377;51.734;8.950;2023-06-14T14:30:00;24.70;1.00
4727;DHT22;2377;51.734;8.950;2023-06-14T14:32:27;24.70;99.90
4727;DHT22;2377;51.734;8.950;2023-06-14T14:34:54;24.70;1.00
4727;DHT22;2377;51.734;8.950;2023-06-14T14:37:21;24.80;1.00
4727;DHT22;2377;51.734;8.950;2023-06-14T14:39:50;24.80;1.00
4727;DHT22;2377;51.734;8.950;2023-06-14T14:42:17;24.50;1.00
4727;DHT22;2377;51.734;8.950;2023-06-14T14:44:44;24.50;1.00
4727;DHT22;2377;51.734;8.950;2023-06-14T14:47:11;24.60;1.00
4727;DHT22;2377;51.734;8.950;2023-06-14T14:49:38;24.60;1.00
4727;DHT22;2377;51.734;8.950;2023-06-14T14:52:06;24.80;1.00
4727;DHT22;2377;51.734;8.950;2023-06-14T14:54:33;24.90;99.90
4727;DHT22;2377;51.734;8.950;2023-06-14T14:57:03;24.90;99.90
4727;DHT22;2377;51.734;8.950;2023-06-14T14:59:30;24.90;99.90
4727;DHT22;2377;51.734;8.950;2023-06-14T15:01:57;25.00;99.90
4727;DHT22;2377;51.734;8.950;2023-06-14T15:04:24;25.00;99.90
4727;DHT22;2377;51.734;8.950;2023-06-14T15:06:52;24.90;99.90
4727;DHT22;2377;51.734;8.950;2023-06-14T15:09:19;24.80;99.90
4727;DHT22;2377;51.734;8.950;2023-06-14T15:11:46;25.00;99.90
4727;DHT22;2377;51.734;8.950;2023-06-14T15:14:14;24.80;99.90
4727;DHT22;2377;51.734;8.950;2023-06-14T15:16:41;24.60;99.90
4727;DHT22;2377;51.734;8.950;2023-06-14T15:19:08;24.60;99.90
4727;DHT22;2377;51.734;8.950;2023-06-14T15:21:36;24.80;99.90
4727;DHT22;2377;51.734;8.950;2023-06-14T15:24:03;24.90;99.90
4727;DHT22;2377;51.734;8.950;2023-06-14T15:26:30;25.00;99.90
4727;DHT22;2377;51.734;8.950;2023-06-14T15:28:57;25.00;1.00
4727;DHT22;2377;51.734;8.950;2023-06-14T15:31:26;25.00;99.90
4727;DHT22;2377;51.734;8.950;2023-06-14T15:33:54;24.90;99.90
4727;DHT22;2377;51.734;8.950;2023-06-14T15:36:21;24.80;1.00
4727;DHT22;2377;51.734;8.950;2023-06-14T15:38:48;24.70;1.00
4727;DHT22;2377;51.734;8.950;2023-06-14T15:41:15;24.60;1.00
4727;DHT22;2377;51.734;8.950;2023-06-14T15:43:42;24.70;99.90
4727;DHT22;2377;51.734;8.950;2023-06-14T15:46:10;24.70;99.90
4727;DHT22;2377;51.734;8.950;2023-06-14T15:48:38;24.80;99.90
4727;DHT22;2377;51.734;8.950;2023-06-14T15:51:06;24.90;1.00
4727;DHT22;2377;51.734;8.950;2023-06-14T15:53:37;25.00;99.90
4727;DHT22;2377;51.734;8.950;2023-06-14T15:56:19;25.10;99.90
4727;DHT22;2377;51.734;8.950;2023-06-14T15:58:46;25.20;99.90
4727;DHT22;2377;51.734;8.950;2023-06-14T16:01:14;25.20;99.90
4727;DHT22;2377;51.734;8.950;2023-06-14T16:03:43;25.20;99.90
4727;DHT22;2377;51.734;8.950;2023-06-14T16:06:10;25.10;99.90
4727;DHT22;2377;51.734;8.950;2023-06-14T16:08:37;25.00;99.90
4727;DHT22;2377;51.734;8.950;2023-06-14T16:11:04;24.80;99.90
4727;DHT22;2377;51.734;8.950;2023-06-14T16:13:31;24.60;99.90
4727;DHT22;2377;51.734;8.950;2023-06-14T16:15:58;24.60;99.90
4727;DHT22;2377;51.734;8.950;2023-06-14T16:18:25;24.60;99.90
4727;DHT22;2377;51.734;8.950;2023-06-14T16:20:54;24.80;99.90
4727;DHT22;2377;51.734;8.950;2023-06-14T16:23:22;24.90;99.90
4727;DHT22;2377;51.734;8.950;2023-06-14T16:25:50;25.00;99.90